sensor_id;sensor_type;location;lat;lon;timestamp;P1;durP1;ratioP1;P2;durP2;ratioP2
6143;SDS011;3103;49.492;8.474;2023-06-14T00:00:44;5.20;;;3.17;;
6143;SDS011;3103;49.492;8.474;2023-06-14T00:03:11;5.25;;;3.13;;
6143;SDS011;3103;49.492;8.474;2023-06-14T00:05:38;3.38;;;3.08;;
6143;SDS011;3103;49.492;8.474;2023-06-14T00:08:09;4.25;;;3.70;;
6143;SDS011;3103;49.492;8.474;2023-06-14T00:10:38;6.63;;;3.47;;
6143;SDS011;3103;49.492;8.474;2023-06-14T00:13:08;9.20;;;3.25;;
6143;SDS011;3103;49.492;8.474;2023-06-14T00:15:35;4.00;;;3.45;;
6143;SDS011;3103;49.492;8.474;2023-06-14T00:18:02;4.53;;;3.35;;
6143;SDS011;3103;49.492;8.474;2023-06-14T00:20:30;7.82;;;3.45;;
6143;SDS011;3103;49.492;8.474;2023-06-14T00:22:59;7.97;;;3.42;;
6143;SDS011;3103;49.492;8.474;2023-06-14T00:25:27;4.97;;;3.60;;
6143;SDS011;3103;49.492;8.474;2023-06-14T00:27:56;4.78;;;3.22;;
6143;SDS011;3103;49.492;8.474;2023-06-14T00:30:24;5.30;;;3.40;;
6143;SDS011;3103;49.492;8.474;2023-06-14T00:32:52;5.20;;;3.88;;
6143;SDS011;3103;49.492;8.474;2023-06-14T00:35:19;4.72;;;3.55;;
6143;SDS011;3103;49.492;8.474;2023-06-14T00:37:45;7.95;;;3.30;;
6143;SDS011;3103;49.492;8.474;2023-06-14T00:40:12;4.07;;;3.15;;
6143;SDS011;3103;49.492;8.474;2023-06-14T00:42:40;4.43;;;3.38;;
6143;SDS011;3103;49.492;8.474;2023-06-14T00:45:07;4.47;;;3.50;;
6143;SDS011;3103;49.492;8.474;2023-06-14T00:47:35;6.10;;;3.92;;
6143;SDS011;3103;49.492;8.474;2023-06-14T00:50:06;5.28;;;4.15;;
6143;SDS011;3103;49.492;8.474;2023-06-14T00:52:34;5.18;;;4.13;;
6143;SDS011;3103;49.492;8.474;2023-06-14T00:55:01;5.78;;;3.92;;
6143;SDS011;3103;49.492;8.474;2023-06-14T00:57:31;7.18;;;4.30;;
6143;SDS011;3103;49.492;8.474;2023-06-14T00:59:58;8.48;;;4.38;;
6143;SDS011;3103;49.492;8.474;2023-06-14T01:02:43;6.07;;;4.40;;
6143;SDS011;3103;49.492;8.474;2023-06-14T01:05:30;5.25;;;4.30;;
6143;SDS011;3103;49.492;8.474;2023-06-14T01:10:47;11.40;;;4.20;;
6143;SDS011;3103;49.492;8.474;2023-06-14T01:13:20;5.93;;;4.20;;
6143;SDS011;3103;49.492;8.474;2023-06-14T01:15:50;7.03;;;4.30;;
6143;SDS011;3103;49.492;8.474;2023-06-14T01:18:17;9.13;;;4.50;;
6143;SDS011;3103;49.492;8.474;2023-06-14T01:20:45;6.97;;;4.20;;
6143;SDS011;3103;49.492;8.474;2023-06-14T01:23:17;6.97;;;4.25;;
6143;SDS011;3103;49.492;8.474;2023-06-14T01:25:44;4.68;;;4.05;;
6143;SDS011;3103;49.492;8.474;2023-06-14T01:28:11;4.28;;;3.53;;
6143;SDS011;3103;49.492;8.474;2023-06-14T01:30:41;4.53;;;4.07;;
6143;SDS011;3103;49.492;8.474;2023-06-14T01:33:14;9.10;;;4.00;;
6143;SDS011;3103;49.492;8.474;2023-06-14T01:35:43;7.43;;;3.97;;
6143;SDS011;3103;49.492;8.474;2023-06-14T01:38:12;5.88;;;4.43;;
6143;SDS011;3103;49.492;8.474;2023-06-14T01:40:40;12.15;;;4.30;;
6143;SDS011;3103;49.492;8.474;2023-06-14T01:43:10;5.05;;;3.97;;
6143;SDS011;3103;49.492;8.474;2023-06-14T01:45:40;7.35;;;3.83;;
6143;SDS011;3103;49.492;8.474;2023-06-14T01:48:08;7.20;;;3.78;;
6143;SDS011;3103;49.492;8.474;2023-06-14T01:50:36;7.20;;;4.03;;
6143;SDS011;3103;49.492;8.474;2023-06-14T01:53:06;5.13;;;3.97;;
6143;SDS011;3103;49.492;8.474;2023-06-14T01:55:37;5.20;;;3.65;;
6143;SDS011;3103;49.492;8.474;2023-06-14T01:58:07;5.72;;;3.95;;
6143;SDS011;3103;49.492;8.474;2023-06-14T02:00:34;4.95;;;4.00;;
6143;SDS011;3103;49.492;8.474;2023-06-14T02:03:01;4.50;;;4.10;;
6143;SDS011;3103;49.492;8.474;2023-06-14T02:05:30;7.57;;;4.10;;
6143;SDS011;3103;49.492;8.474;2023-06-14T02:07:57;8.00;;;4.40;;
6143;SDS011;3103;49.492;8.474;2023-06-14T02:10:24;5.35;;;3.92;;
6143;SDS011;3103;49.492;8.474;2023-06-14T02:12:54;6.28;;;4.45;;
6143;SDS011;3103;49.492;8.474;2023-06-14T02:15:21;4.45;;;3.85;;
6143;SDS011;3103;49.492;8.474;2023-06-14T02:17:48;5.72;;;4.15;;
6143;SDS011;3103;49.492;8.474;2023-06-14T02:20:18;8.80;;;4.45;;
6143;SDS011;3103;49.492;8.474;2023-06-14T02:22:45;6.63;;;5.03;;
6143;SDS011;3103;49.492;8.474;2023-06-14T02:25:12;6.28;;;4.47;;
6143;SDS011;3103;49.492;8.474;2023-06-14T02:27:40;6.90;;;4.35;;
6143;SDS011;3103;49.492;8.474;2023-06-14T02:30:10;6.63;;;4.70;;
6143;SDS011;3103;49.492;8.474;2023-06-14T02:32:37;10.77;;;4.68;;
6143;SDS011;3103;49.492;8.474;2023-06-14T02:35:05;8.60;;;4.70;;
6143;SDS011;3103;49.492;8.474;2023-06-14T02:37:35;6.45;;;4.22;;
6143;SDS011;3103;49.492;8.474;2023-06-14T02:40:01;8.93;;;4.60;;
6143;SDS011;3103;49.492;8.474;2023-06-14T02:42:30;7.25;;;4.53;;
6143;SDS011;3103;49.492;8.474;2023-06-14T02:44:58;9.70;;;4.88;;
6143;SDS011;3103;49.492;8.474;2023-06-14T02:47:31;10.57;;;4.47;;
6143;SDS011;3103;49.492;8.474;2023-06-14T02:49:58;5.65;;;4.50;;
6143;SDS011;3103;49.492;8.474;2023-06-14T02:52:26;6.80;;;4.75;;
6143;SDS011;3103;49.492;8.474;2023-06-14T02:54:52;8.13;;;4.55;;
6143;SDS011;3103;49.492;8.474;2023-06-14T02:57:21;8.93;;;4.55;;
6143;SDS011;3103;49.492;8.474;2023-06-14T02:59:49;4.90;;;4.13;;
6143;SDS011;3103;49.492;8.474;2023-06-14T03:02:16;7.68;;;4.07;;
6143;SDS011;3103;49.492;8.474;2023-06-14T03:04:44;8.77;;;4.53;;
6143;SDS011;3103;49.492;8.474;2023-06-14T03:07:15;5.32;;;4.32;;
6143;SDS011;3103;49.492;8.474;2023-06-14T03:09:48;5.70;;;4.20;;
6143;SDS011;3103;49.492;8.474;2023-06-14T03:12:16;7.13;;;4.22;;
6143;SDS011;3103;49.492;8.474;2023-06-14T03:14:43;6.93;;;4.70;;
6143;SDS011;3103;49.492;8.474;2023-06-14T03:17:14;6.05;;;4.60;;
6143;SDS011;3103;49.492;8.474;2023-06-14T03:19:44;10.20;;;4.85;;
6143;SDS011;3103;49.492;8.474;2023-06-14T03:22:12;6.47;;;3.72;;
6143;SDS011;3103;49.492;8.474;2023-06-14T03:24:39;5.72;;;4.20;;
6143;SDS011;3103;49.492;8.474;2023-06-14T03:27:10;6.65;;;4.20;;
6143;SDS011;3103;49.492;8.474;2023-06-14T03:29:42;6.40;;;4.15;;
6143;SDS011;3103;49.492;8.474;2023-06-14T03:32:09;6.65;;;4.50;;
6143;SDS011;3103;49.492;8.474;2023-06-14T03:34:39;11.63;;;5.30;;
6143;SDS011;3103;49.492;8.474;2023-06-14T03:37:08;8.82;;;4.85;;
6143;SDS011;3103;49.492;8.474;2023-06-14T03:39:34;9.02;;;4.28;;
6143;SDS011;3103;49.492;8.474;2023-06-14T03:42:02;12.73;;;5.63;;
6143;SDS011;3103;49.492;8.474;2023-06-14T03:44:31;7.57;;;4.80;;
6143;SDS011;3103;49.492;8.474;2023-06-14T03:46:59;8.25;;;4.13;;
6143;SDS011;3103;49.492;8.474;2023-06-14T03:49:27;20.38;;;6.30;;
6143;SDS011;3103;49.492;8.474;2023-06-14T03:51:54;19.15;;;4.97;;
6143;SDS011;3103;49.492;8.474;2023-06-14T03:54:23;6.60;;;4.40;;
6143;SDS011;3103;49.492;8.474;2023-06-14T03:56:54;5.70;;;4.38;;
6143;SDS011;3103;49.492;8.474;2023-06-14T03:59:20;9.35;;;4.90;;
6143;SDS011;3103;49.492;8.474;2023-06-14T04:01:47;6.85;;;4.50;;
6143;SDS011;3103;49.492;8.474;2023-06-14T04:04:16;6.63;;;4.05;;
6143;SDS011;3103;49.492;8.474;2023-06-14T04:06:43;5.80;;;4.47;;
6143;SDS011;3103;49.492;8.474;2023-06-14T04:09:10;6.30;;;4.53;;
6143;SDS011;3103;49.492;8.474;2023-06-14T04:11:37;8.70;;;4.53;;
6143;SDS011;3103;49.492;8.474;2023-06-14T04:14:05;5.18;;;3.95;;
6143;SDS011;3103;49.492;8.474;2023-06-14T04:16:32;7.00;;;4.13;;
6143;SDS011;3103;49.492;8.474;2023-06-14T04:19:00;6.85;;;4.53;;
6143;SDS011;3103;49.492;8.474;2023-06-14T04:21:28;7.00;;;4.50;;
6143;SDS011;3103;49.492;8.474;2023-06-14T04:23:58;6.65;;;4.00;;
6143;SDS011;3103;49.492;8.474;2023-06-14T04:26:30;5.97;;;4.32;;
6143;SDS011;3103;49.492;8.474;2023-06-14T04:28:59;7.15;;;4.28;;
6143;SDS011;3103;49.492;8.474;2023-06-14T04:31:33;13.00;;;3.83;;
6143;SDS011;3103;49.492;8.474;2023-06-14T04:34:01;6.72;;;4.03;;
6143;SDS011;3103;49.492;8.474;2023-06-14T04:36:35;6.60;;;4.10;;
6143;SDS011;3103;49.492;8.474;2023-06-14T04:39:06;7.50;;;4.32;;
6143;SDS011;3103;49.492;8.474;2023-06-14T04:41:33;6.60;;;4.07;;
6143;SDS011;3103;49.492;8.474;2023-06-14T04:44:01;5.30;;;3.83;;
6143;SDS011;3103;49.492;8.474;2023-06-14T04:46:33;3.90;;;3.50;;
6143;SDS011;3103;49.492;8.474;2023-06-14T04:49:16;7.78;;;3.58;;
6143;SDS011;3103;49.492;8.474;2023-06-14T04:51:44;6.72;;;4.03;;
6143;SDS011;3103;49.492;8.474;2023-06-14T04:54:13;9.60;;;4.15;;
6143;SDS011;3103;49.492;8.474;2023-06-14T04:56:41;7.43;;;4.53;;
6143;SDS011;3103;49.492;8.474;2023-06-14T04:59:12;7.00;;;4.40;;
6143;SDS011;3103;49.492;8.474;2023-06-14T05:01:41;4.80;;;4.25;;
6143;SDS011;3103;49.492;8.474;2023-06-14T05:04:08;9.60;;;4.05;;
6143;SDS011;3103;49.492;8.474;2023-06-14T05:06:35;5.30;;;3.67;;
6143;SDS011;3103;49.492;8.474;2023-06-14T05:09:03;8.00;;;4.75;;
6143;SDS011;3103;49.492;8.474;2023-06-14T05:11:30;5.15;;;3.83;;
6143;SDS011;3103;49.492;8.474;2023-06-14T05:13:56;4.75;;;4.22;;
6143;SDS011;3103;49.492;8.474;2023-06-14T05:16:25;5.57;;;3.90;;
6143;SDS011;3103;49.492;8.474;2023-06-14T05:18:54;7.18;;;4.50;;
6143;SDS011;3103;49.492;8.474;2023-06-14T05:21:21;6.43;;;3.78;;
6143;SDS011;3103;49.492;8.474;2023-06-14T05:23:48;7.75;;;4.28;;
6143;SDS011;3103;49.492;8.474;2023-06-14T05:26:15;8.07;;;4.13;;
6143;SDS011;3103;49.492;8.474;2023-06-14T05:28:42;5.63;;;3.80;;
6143;SDS011;3103;49.492;8.474;2023-06-14T05:31:09;9.73;;;4.28;;
6143;SDS011;3103;49.492;8.474;2023-06-14T05:33:36;6.28;;;3.97;;
6143;SDS011;3103;49.492;8.474;2023-06-14T05:36:02;7.53;;;4.13;;
6143;SDS011;3103;49.492;8.474;2023-06-14T05:38:31;5.07;;;4.15;;
6143;SDS011;3103;49.492;8.474;2023-06-14T05:40:58;5.45;;;3.85;;
6143;SDS011;3103;49.492;8.474;2023-06-14T05:43:26;10.80;;;4.60;;
6143;SDS011;3103;49.492;8.474;2023-06-14T05:45:53;7.05;;;4.50;;
6143;SDS011;3103;49.492;8.474;2023-06-14T05:48:19;7.30;;;4.65;;
6143;SDS011;3103;49.492;8.474;2023-06-14T05:50:47;7.47;;;4.07;;
6143;SDS011;3103;49.492;8.474;2023-06-14T05:53:15;9.75;;;4.20;;
6143;SDS011;3103;49.492;8.474;2023-06-14T05:55:41;6.47;;;4.35;;
6143;SDS011;3103;49.492;8.474;2023-06-14T05:58:08;6.90;;;4.00;;
6143;SDS011;3103;49.492;8.474;2023-06-14T06:00:37;9.15;;;5.00;;
6143;SDS011;3103;49.492;8.474;2023-06-14T06:03:03;11.25;;;4.82;;
6143;SDS011;3103;49.492;8.474;2023-06-14T06:05:31;7.10;;;3.67;;
6143;SDS011;3103;49.492;8.474;2023-06-14T06:07:58;5.57;;;3.95;;
6143;SDS011;3103;49.492;8.474;2023-06-14T06:10:25;7.00;;;4.18;;
6143;SDS011;3103;49.492;8.474;2023-06-14T06:12:51;5.60;;;3.83;;
6143;SDS011;3103;49.492;8.474;2023-06-14T06:15:20;11.18;;;4.32;;
6143;SDS011;3103;49.492;8.474;2023-06-14T06:17:47;6.20;;;3.95;;
6143;SDS011;3103;49.492;8.474;2023-06-14T06:20:23;5.82;;;3.67;;
6143;SDS011;3103;49.492;8.474;2023-06-14T06:22:55;6.13;;;4.18;;
6143;SDS011;3103;49.492;8.474;2023-06-14T06:25:22;4.60;;;3.35;;
6143;SDS011;3103;49.492;8.474;2023-06-14T06:27:53;6.72;;;3.80;;
6143;SDS011;3103;49.492;8.474;2023-06-14T06:30:21;5.05;;;3.50;;
6143;SDS011;3103;49.492;8.474;2023-06-14T06:32:48;4.38;;;3.40;;
6143;SDS011;3103;49.492;8.474;2023-06-14T06:35:15;5.07;;;3.17;;
6143;SDS011;3103;49.492;8.474;2023-06-14T06:37:42;4.35;;;3.17;;
6143;SDS011;3103;49.492;8.474;2023-06-14T06:40:09;4.80;;;3.20;;
6143;SDS011;3103;49.492;8.474;2023-06-14T06:42:36;7.07;;;3.53;;
6143;SDS011;3103;49.492;8.474;2023-06-14T06:45:04;6.65;;;3.25;;
6143;SDS011;3103;49.492;8.474;2023-06-14T06:47:34;4.15;;;3.08;;
6143;SDS011;3103;49.492;8.474;2023-06-14T06:50:01;3.88;;;3.28;;
6143;SDS011;3103;49.492;8.474;2023-06-14T06:52:32;4.95;;;3.35;;
6143;SDS011;3103;49.492;8.474;2023-06-14T06:55:00;6.00;;;2.92;;
6143;SDS011;3103;49.492;8.474;2023-06-14T06:57:29;9.32;;;3.45;;
6143;SDS011;3103;49.492;8.474;2023-06-14T06:59:56;3.63;;;3.17;;
6143;SDS011;3103;49.492;8.474;2023-06-14T07:02:23;10.40;;;3.30;;
6143;SDS011;3103;49.492;8.474;2023-06-14T07:04:50;4.78;;;3.22;;
6143;SDS011;3103;49.492;8.474;2023-06-14T07:07:17;4.75;;;3.30;;
6143;SDS011;3103;49.492;8.474;2023-06-14T07:09:44;4.07;;;3.08;;
6143;SDS011;3103;49.492;8.474;2023-06-14T07:12:12;6.32;;;3.20;;
6143;SDS011;3103;49.492;8.474;2023-06-14T07:14:39;5.55;;;3.35;;
6143;SDS011;3103;49.492;8.474;2023-06-14T07:17:06;9.02;;;3.53;;
6143;SDS011;3103;49.492;8.474;2023-06-14T07:19:34;5.30;;;3.00;;
6143;SDS011;3103;49.492;8.474;2023-06-14T07:22:01;9.27;;;3.60;;
6143;SDS011;3103;49.492;8.474;2023-06-14T07:24:28;5.45;;;3.40;;
6143;SDS011;3103;49.492;8.474;2023-06-14T07:26:55;5.20;;;3.10;;
6143;SDS011;3103;49.492;8.474;2023-06-14T07:29:23;5.25;;;3.10;;
6143;SDS011;3103;49.492;8.474;2023-06-14T07:31:49;4.10;;;3.38;;
6143;SDS011;3103;49.492;8.474;2023-06-14T07:34:16;11.07;;;3.90;;
6143;SDS011;3103;49.492;8.474;2023-06-14T07:36:43;4.13;;;3.42;;
6143;SDS011;3103;49.492;8.474;2023-06-14T07:39:11;6.45;;;3.22;;
6143;SDS011;3103;49.492;8.474;2023-06-14T07:41:38;6.18;;;3.17;;
6143;SDS011;3103;49.492;8.474;2023-06-14T07:44:05;4.50;;;3.08;;
6143;SDS011;3103;49.492;8.474;2023-06-14T07:46:32;3.80;;;3.08;;
6143;SDS011;3103;49.492;8.474;2023-06-14T07:49:01;4.57;;;3.30;;
6143;SDS011;3103;49.492;8.474;2023-06-14T07:51:28;9.93;;;3.40;;
6143;SDS011;3103;49.492;8.474;2023-06-14T07:53:54;6.22;;;3.10;;
6143;SDS011;3103;49.492;8.474;2023-06-14T07:56:21;4.97;;;3.55;;
6143;SDS011;3103;49.492;8.474;2023-06-14T07:58:49;8.25;;;4.20;;
6143;SDS011;3103;49.492;8.474;2023-06-14T08:01:16;11.38;;;7.95;;
6143;SDS011;3103;49.492;8.474;2023-06-14T08:03:43;12.07;;;6.80;;
6143;SDS011;3103;49.492;8.474;2023-06-14T08:06:10;11.43;;;8.18;;
6143;SDS011;3103;49.492;8.474;2023-06-14T08:08:37;6.85;;;4.65;;
6143;SDS011;3103;49.492;8.474;2023-06-14T08:11:04;11.63;;;7.20;;
6143;SDS011;3103;49.492;8.474;2023-06-14T08:13:31;17.80;;;12.88;;
6143;SDS011;3103;49.492;8.474;2023-06-14T08:15:57;28.40;;;20.58;;
6143;SDS011;3103;49.492;8.474;2023-06-14T08:18:25;7.70;;;4.63;;
6143;SDS011;3103;49.492;8.474;2023-06-14T08:20:51;6.95;;;3.38;;
6143;SDS011;3103;49.492;8.474;2023-06-14T08:23:18;17.77;;;9.10;;
6143;SDS011;3103;49.492;8.474;2023-06-14T08:25:47;36.63;;;27.75;;
6143;SDS011;3103;49.492;8.474;2023-06-14T08:28:14;16.13;;;11.80;;
6143;SDS011;3103;49.492;8.474;2023-06-14T08:30:41;6.28;;;3.85;;
6143;SDS011;3103;49.492;8.474;2023-06-14T08:33:09;6.63;;;3.30;;
6143;SDS011;3103;49.492;8.474;2023-06-14T08:35:42;5.43;;;2.53;;
6143;SDS011;3103;49.492;8.474;2023-06-14T08:38:10;5.03;;;3.35;;
6143;SDS011;3103;49.492;8.474;2023-06-14T08:40:38;8.38;;;3.13;;
6143;SDS011;3103;49.492;8.474;2023-06-14T08:43:07;4.90;;;3.35;;
6143;SDS011;3103;49.492;8.474;2023-06-14T08:45:34;4.30;;;2.83;;
6143;SDS011;3103;49.492;8.474;2023-06-14T08:48:01;11.57;;;3.80;;
6143;SDS011;3103;49.492;8.474;2023-06-14T08:50:29;5.05;;;2.60;;
6143;SDS011;3103;49.492;8.474;2023-06-14T08:53:00;8.98;;;2.95;;
6143;SDS011;3103;49.492;8.474;2023-06-14T08:55:31;4.57;;;2.50;;
6143;SDS011;3103;49.492;8.474;2023-06-14T08:58:04;5.82;;;2.85;;
6143;SDS011;3103;49.492;8.474;2023-06-14T09:00:32;3.40;;;2.88;;
6143;SDS011;3103;49.492;8.474;2023-06-14T09:03:00;3.65;;;2.65;;
6143;SDS011;3103;49.492;8.474;2023-06-14T09:05:27;4.78;;;2.50;;
6143;SDS011;3103;49.492;8.474;2023-06-14T09:07:54;3.80;;;2.72;;
6143;SDS011;3103;49.492;8.474;2023-06-14T09:10:22;11.13;;;2.65;;
6143;SDS011;3103;49.492;8.474;2023-06-14T09:12:50;4.72;;;2.40;;
6143;SDS011;3103;49.492;8.474;2023-06-14T09:15:17;2.85;;;2.40;;
6143;SDS011;3103;49.492;8.474;2023-06-14T09:17:45;3.00;;;2.20;;
6143;SDS011;3103;49.492;8.474;2023-06-14T09:20:12;2.78;;;2.50;;
6143;SDS011;3103;49.492;8.474;2023-06-14T09:22:46;3.20;;;2.67;;
6143;SDS011;3103;49.492;8.474;2023-06-14T09:25:13;11.30;;;7.93;;
6143;SDS011;3103;49.492;8.474;2023-06-14T09:28:02;3.95;;;2.45;;
6143;SDS011;3103;49.492;8.474;2023-06-14T09:30:29;6.13;;;4.32;;
6143;SDS011;3103;49.492;8.474;2023-06-14T09:32:55;8.73;;;6.47;;
6143;SDS011;3103;49.492;8.474;2023-06-14T09:35:26;11.65;;;5.70;;
6143;SDS011;3103;49.492;8.474;2023-06-14T09:37:56;7.72;;;4.53;;
6143;SDS011;3103;49.492;8.474;2023-06-14T09:40:23;12.32;;;10.57;;
6143;SDS011;3103;49.492;8.474;2023-06-14T09:42:50;6.38;;;4.18;;
6143;SDS011;3103;49.492;8.474;2023-06-14T09:45:18;10.73;;;6.57;;
6143;SDS011;3103;49.492;8.474;2023-06-14T09:47:49;4.18;;;3.50;;
6143;SDS011;3103;49.492;8.474;2023-06-14T09:50:33;7.25;;;3.00;;
6143;SDS011;3103;49.492;8.474;2023-06-14T09:53:07;3.67;;;2.45;;
6143;SDS011;3103;49.492;8.474;2023-06-14T09:55:36;4.00;;;2.83;;
6143;SDS011;3103;49.492;8.474;2023-06-14T09:58:05;7.18;;;2.70;;
6143;SDS011;3103;49.492;8.474;2023-06-14T10:00:35;5.50;;;2.45;;
6143;SDS011;3103;49.492;8.474;2023-06-14T10:03:05;3.53;;;2.50;;
6143;SDS011;3103;49.492;8.474;2023-06-14T10:05:37;3.55;;;2.63;;
6143;SDS011;3103;49.492;8.474;2023-06-14T10:08:08;5.53;;;2.40;;
6143;SDS011;3103;49.492;8.474;2023-06-14T10:10:38;3.00;;;2.42;;
6143;SDS011;3103;49.492;8.474;2023-06-14T10:13:06;3.42;;;2.53;;
6143;SDS011;3103;49.492;8.474;2023-06-14T10:15:36;2.80;;;2.60;;
6143;SDS011;3103;49.492;8.474;2023-06-14T10:18:27;3.72;;;2.55;;
6143;SDS011;3103;49.492;8.474;2023-06-14T10:21:04;4.57;;;2.90;;
6143;SDS011;3103;49.492;8.474;2023-06-14T10:23:43;4.47;;;2.83;;
6143;SDS011;3103;49.492;8.474;2023-06-14T10:26:19;5.65;;;2.72;;
6143;SDS011;3103;49.492;8.474;2023-06-14T10:31:39;5.97;;;3.00;;
6143;SDS011;3103;49.492;8.474;2023-06-14T10:34:23;6.82;;;3.00;;
6143;SDS011;3103;49.492;8.474;2023-06-14T10:37:01;5.95;;;3.15;;
6143;SDS011;3103;49.492;8.474;2023-06-14T10:39:40;5.50;;;2.67;;
6143;SDS011;3103;49.492;8.474;2023-06-14T10:42:08;4.85;;;2.75;;
6143;SDS011;3103;49.492;8.474;2023-06-14T10:44:40;6.03;;;3.05;;
6143;SDS011;3103;49.492;8.474;2023-06-14T10:47:19;3.50;;;2.67;;
6143;SDS011;3103;49.492;8.474;2023-06-14T10:49:51;6.68;;;2.80;;
6143;SDS011;3103;49.492;8.474;2023-06-14T10:52:24;5.93;;;2.60;;
6143;SDS011;3103;49.492;8.474;2023-06-14T10:54:55;4.82;;;2.92;;
6143;SDS011;3103;49.492;8.474;2023-06-14T10:57:30;2.78;;;2.50;;
6143;SDS011;3103;49.492;8.474;2023-06-14T11:00:16;2.95;;;2.63;;
6143;SDS011;3103;49.492;8.474;2023-06-14T11:05:50;8.20;;;2.85;;
6143;SDS011;3103;49.492;8.474;2023-06-14T11:10:58;4.85;;;2.88;;
6143;SDS011;3103;49.492;8.474;2023-06-14T11:13:26;4.88;;;2.80;;
6143;SDS011;3103;49.492;8.474;2023-06-14T11:15:57;2.83;;;2.30;;
6143;SDS011;3103;49.492;8.474;2023-06-14T11:18:24;3.38;;;2.53;;
6143;SDS011;3103;49.492;8.474;2023-06-14T11:20:54;6.88;;;2.63;;
6143;SDS011;3103;49.492;8.474;2023-06-14T11:23:21;2.88;;;2.65;;
6143;SDS011;3103;49.492;8.474;2023-06-14T11:25:52;4.10;;;2.97;;
6143;SDS011;3103;49.492;8.474;2023-06-14T11:28:19;6.05;;;2.80;;
6143;SDS011;3103;49.492;8.474;2023-06-14T11:30:48;7.10;;;2.78;;
6143;SDS011;3103;49.492;8.474;2023-06-14T11:33:18;4.93;;;2.47;;
6143;SDS011;3103;49.492;8.474;2023-06-14T11:35:45;4.38;;;2.90;;
6143;SDS011;3103;49.492;8.474;2023-06-14T11:38:12;3.95;;;2.88;;
6143;SDS011;3103;49.492;8.474;2023-06-14T11:40:40;7.55;;;2.80;;
6143;SDS011;3103;49.492;8.474;2023-06-14T11:43:06;3.88;;;2.60;;
6143;SDS011;3103;49.492;8.474;2023-06-14T11:45:33;3.65;;;2.58;;
6143;SDS011;3103;49.492;8.474;2023-06-14T11:48:00;8.05;;;3.13;;
6143;SDS011;3103;49.492;8.474;2023-06-14T11:50:27;5.32;;;2.72;;
6143;SDS011;3103;49.492;8.474;2023-06-14T11:52:55;30.45;;;20.45;;
6143;SDS011;3103;49.492;8.474;2023-06-14T11:55:23;35.10;;;25.20;;
6143;SDS011;3103;49.492;8.474;2023-06-14T11:57:50;8.75;;;5.45;;
6143;SDS011;3103;49.492;8.474;2023-06-14T12:00:17;7.05;;;4.30;;
6143;SDS011;3103;49.492;8.474;2023-06-14T12:02:52;8.23;;;5.65;;
6143;SDS011;3103;49.492;8.474;2023-06-14T12:05:24;16.10;;;12.20;;
6143;SDS011;3103;49.492;8.474;2023-06-14T12:07:59;18.63;;;13.27;;
6143;SDS011;3103;49.492;8.474;2023-06-14T12:10:29;15.30;;;12.00;;
6143;SDS011;3103;49.492;8.474;2023-06-14T12:12:57;8.73;;;2.85;;
6143;SDS011;3103;49.492;8.474;2023-06-14T12:15:28;3.67;;;3.10;;
6143;SDS011;3103;49.492;8.474;2023-06-14T12:17:58;6.07;;;3.00;;
6143;SDS011;3103;49.492;8.474;2023-06-14T12:20:28;3.80;;;2.85;;
6143;SDS011;3103;49.492;8.474;2023-06-14T12:23:02;4.65;;;2.63;;
6143;SDS011;3103;49.492;8.474;2023-06-14T12:25:31;3.13;;;2.83;;
6143;SDS011;3103;49.492;8.474;2023-06-14T12:28:06;3.20;;;2.53;;
6143;SDS011;3103;49.492;8.474;2023-06-14T12:30:34;3.45;;;2.85;;
6143;SDS011;3103;49.492;8.474;2023-06-14T12:33:02;3.90;;;3.00;;
6143;SDS011;3103;49.492;8.474;2023-06-14T12:35:30;5.47;;;3.03;;
6143;SDS011;3103;49.492;8.474;2023-06-14T12:37:57;3.53;;;3.13;;
6143;SDS011;3103;49.492;8.474;2023-06-14T12:40:24;4.97;;;3.10;;
6143;SDS011;3103;49.492;8.474;2023-06-14T12:42:50;3.42;;;2.72;;
6143;SDS011;3103;49.492;8.474;2023-06-14T12:45:17;6.45;;;3.08;;
6143;SDS011;3103;49.492;8.474;2023-06-14T12:47:45;7.75;;;3.10;;
6143;SDS011;3103;49.492;8.474;2023-06-14T12:50:12;3.92;;;2.97;;
6143;SDS011;3103;49.492;8.474;2023-06-14T12:52:39;4.68;;;2.75;;
6143;SDS011;3103;49.492;8.474;2023-06-14T12:55:06;4.93;;;3.05;;
6143;SDS011;3103;49.492;8.474;2023-06-14T12:57:33;3.05;;;2.58;;
6143;SDS011;3103;49.492;8.474;2023-06-14T13:00:03;3.90;;;3.08;;
6143;SDS011;3103;49.492;8.474;2023-06-14T13:02:33;4.38;;;2.83;;
6143;SDS011;3103;49.492;8.474;2023-06-14T13:05:00;4.20;;;2.60;;
6143;SDS011;3103;49.492;8.474;2023-06-14T13:07:30;3.53;;;2.60;;
6143;SDS011;3103;49.492;8.474;2023-06-14T13:09:57;3.13;;;2.78;;
6143;SDS011;3103;49.492;8.474;2023-06-14T13:12:24;75.05;;;58.40;;
6143;SDS011;3103;49.492;8.474;2023-06-14T13:14:51;84.95;;;61.03;;
6143;SDS011;3103;49.492;8.474;2023-06-14T13:17:17;121.32;;;88.05;;
6143;SDS011;3103;49.492;8.474;2023-06-14T13:19:44;79.40;;;57.58;;
6143;SDS011;3103;49.492;8.474;2023-06-14T13:22:11;60.72;;;47.30;;
6143;SDS011;3103;49.492;8.474;2023-06-14T13:24:38;4.97;;;2.95;;
6143;SDS011;3103;49.492;8.474;2023-06-14T13:27:05;2.92;;;2.63;;
6143;SDS011;3103;49.492;8.474;2023-06-14T13:29:33;4.15;;;2.60;;
6143;SDS011;3103;49.492;8.474;2023-06-14T13:32:02;5.93;;;2.50;;
6143;SDS011;3103;49.492;8.474;2023-06-14T13:34:30;4.72;;;2.72;;
6143;SDS011;3103;49.492;8.474;2023-06-14T13:36:56;2.95;;;2.70;;
6143;SDS011;3103;49.492;8.474;2023-06-14T13:39:26;4.15;;;2.65;;
6143;SDS011;3103;49.492;8.474;2023-06-14T13:41:53;5.63;;;2.65;;
6143;SDS011;3103;49.492;8.474;2023-06-14T13:44:20;2.60;;;2.40;;
6143;SDS011;3103;49.492;8.474;2023-06-14T13:46:47;4.65;;;2.72;;
6143;SDS011;3103;49.492;8.474;2023-06-14T13:49:14;5.22;;;2.63;;
6143;SDS011;3103;49.492;8.474;2023-06-14T13:51:41;3.78;;;2.35;;
6143;SDS011;3103;49.492;8.474;2023-06-14T13:54:08;3.20;;;2.90;;
6143;SDS011;3103;49.492;8.474;2023-06-14T13:56:35;3.25;;;2.55;;
6143;SDS011;3103;49.492;8.474;2023-06-14T13:59:02;3.08;;;2.72;;
6143;SDS011;3103;49.492;8.474;2023-06-14T14:01:29;5.63;;;2.78;;
6143;SDS011;3103;49.492;8.474;2023-06-14T14:03:56;3.85;;;2.50;;
6143;SDS011;3103;49.492;8.474;2023-06-14T14:06:25;3.83;;;2.75;;
6143;SDS011;3103;49.492;8.474;2023-06-14T14:08:52;3.33;;;2.65;;
6143;SDS011;3103;49.492;8.474;2023-06-14T14:11:20;3.17;;;2.88;;
6143;SDS011;3103;49.492;8.474;2023-06-14T14:13:46;3.03;;;2.55;;
6143;SDS011;3103;49.492;8.474;2023-06-14T14:16:14;7.80;;;2.88;;
6143;SDS011;3103;49.492;8.474;2023-06-14T14:18:41;4.20;;;3.08;;
6143;SDS011;3103;49.492;8.474;2023-06-14T14:21:11;5.88;;;2.90;;
6143;SDS011;3103;49.492;8.474;2023-06-14T14:23:37;5.18;;;2.90;;
6143;SDS011;3103;49.492;8.474;2023-06-14T14:26:07;4.88;;;2.90;;
6143;SDS011;3103;49.492;8.474;2023-06-14T14:28:34;8.02;;;3.38;;
6143;SDS011;3103;49.492;8.474;2023-06-14T14:31:01;7.55;;;2.90;;
6143;SDS011;3103;49.492;8.474;2023-06-14T14:33:28;6.45;;;3.22;;
6143;SDS011;3103;49.492;8.474;2023-06-14T14:35:55;9.30;;;3.42;;
6143;SDS011;3103;49.492;8.474;2023-06-14T14:38:22;3.58;;;2.83;;
6143;SDS011;3103;49.492;8.474;2023-06-14T14:40:48;29.20;;;20.45;;
6143;SDS011;3103;49.492;8.474;2023-06-14T14:43:15;16.25;;;12.98;;
6143;SDS011;3103;49.492;8.474;2023-06-14T14:45:42;15.38;;;11.68;;
6143;SDS011;3103;49.492;8.474;2023-06-14T14:48:09;14.98;;;8.93;;
6143;SDS011;3103;49.492;8.474;2023-06-14T14:50:36;35.08;;;22.73;;
6143;SDS011;3103;49.492;8.474;2023-06-14T14:53:03;29.65;;;21.63;;
6143;SDS011;3103;49.492;8.474;2023-06-14T14:55:30;31.23;;;23.80;;
6143;SDS011;3103;49.492;8.474;2023-06-14T14:57:57;27.17;;;21.27;;
6143;SDS011;3103;49.492;8.474;2023-06-14T15:00:24;11.52;;;7.45;;
6143;SDS011;3103;49.492;8.474;2023-06-14T15:02:50;6.45;;;5.38;;
6143;SDS011;3103;49.492;8.474;2023-06-14T15:05:18;6.20;;;5.05;;
6143;SDS011;3103;49.492;8.474;2023-06-14T15:07:44;4.25;;;2.88;;
6143;SDS011;3103;49.492;8.474;2023-06-14T15:10:12;5.00;;;2.97;;
6143;SDS011;3103;49.492;8.474;2023-06-14T15:12:39;3.47;;;2.88;;
6143;SDS011;3103;49.492;8.474;2023-06-14T15:15:06;3.00;;;2.63;;
6143;SDS011;3103;49.492;8.474;2023-06-14T15:17:33;4.10;;;3.00;;
6143;SDS011;3103;49.492;8.474;2023-06-14T15:20:00;4.25;;;2.92;;
6143;SDS011;3103;49.492;8.474;2023-06-14T15:22:30;7.70;;;3.28;;
6143;SDS011;3103;49.492;8.474;2023-06-14T15:24:57;5.38;;;2.78;;
6143;SDS011;3103;49.492;8.474;2023-06-14T15:27:24;8.40;;;3.53;;
6143;SDS011;3103;49.492;8.474;2023-06-14T15:29:51;4.18;;;3.38;;
6143;SDS011;3103;49.492;8.474;2023-06-14T15:32:18;3.67;;;3.38;;